createdAt,value
2022-08-26T00:01:18.807Z,16.33
2022-08-26T00:03:31.544Z,16.32
2022-08-26T00:05:35.978Z,16.26
2022-08-26T00:07:39.120Z,16.20
2022-08-26T00:09:41.585Z,16.17
2022-08-26T00:11:49.652Z,16.19
2022-08-26T00:14:02.660Z,16.06
2022-08-26T00:16:08.332Z,16.14
2022-08-26T00:18:21.730Z,15.89
2022-08-26T00:20:28.655Z,15.98
2022-08-26T00:22:30.648Z,15.94
2022-08-26T00:24:33.831Z,16.06
2022-08-26T00:26:37.381Z,15.96
2022-08-26T00:28:40.949Z,15.96
2022-08-26T00:30:43.000Z,15.99
2022-08-26T00:32:48.796Z,15.93
2022-08-26T00:34:50.770Z,15.86
2022-08-26T00:36:52.800Z,15.65
2022-08-26T00:38:54.853Z,15.53
2022-08-26T00:40:57.774Z,15.63
2022-08-26T00:43:02.769Z,15.66
2022-08-26T00:45:11.658Z,15.71
2022-08-26T00:47:31.001Z,15.70
2022-08-26T00:49:40.956Z,15.67
2022-08-26T00:51:55.256Z,15.54
2022-08-26T00:54:10.817Z,15.80
2022-08-26T00:56:22.680Z,15.79
2022-08-26T00:58:28.222Z,15.74
2022-08-26T01:00:32.328Z,15.82
2022-08-26T01:02:34.355Z,15.83
2022-08-26T01:04:42.180Z,15.65
2022-08-26T01:06:45.668Z,15.75
2022-08-26T01:08:47.598Z,15.70
2022-08-26T01:10:49.888Z,15.45
2022-08-26T01:13:01.758Z,15.50
2022-08-26T01:15:06.227Z,15.47
2022-08-26T01:17:09.767Z,15.43
2022-08-26T01:19:21.917Z,15.43
2022-08-26T01:21:36.260Z,15.46
2022-08-26T01:23:48.064Z,15.34
2022-08-26T01:25:55.228Z,15.24
2022-08-26T01:28:09.225Z,15.08
2022-08-26T01:30:13.475Z,15.05
2022-08-26T01:32:19.810Z,15.05
2022-08-26T01:34:29.109Z,15.16
2022-08-26T01:36:31.583Z,15.12
2022-08-26T01:38:33.796Z,15.16
2022-08-26T01:40:39.658Z,15.16
2022-08-26T01:42:42.735Z,15.23
2022-08-26T01:45:11.431Z,15.32
2022-08-26T01:47:16.655Z,15.22
2022-08-26T01:49:26.144Z,15.12
2022-08-26T01:51:29.668Z,15.03
2022-08-26T01:53:32.227Z,14.91
2022-08-26T01:55:34.799Z,14.89
2022-08-26T01:57:37.345Z,14.93
2022-08-26T01:59:39.335Z,14.97
2022-08-26T02:01:43.037Z,15.02
2022-08-26T02:04:05.903Z,15.00
2022-08-26T02:06:09.431Z,14.98
2022-08-26T02:08:13.462Z,14.91
2022-08-26T02:10:16.183Z,14.82
2022-08-26T02:12:26.384Z,14.80
2022-08-26T02:14:43.611Z,14.88
2022-08-26T02:16:50.612Z,14.80
2022-08-26T02:18:54.372Z,14.82
2022-08-26T02:20:57.465Z,14.77
2022-08-26T02:23:00.485Z,14.87
2022-08-26T02:25:27.264Z,14.86
2022-08-26T02:27:33.383Z,14.85
2022-08-26T02:29:43.732Z,14.84
2022-08-26T02:31:49.931Z,15.07
2022-08-26T02:33:51.913Z,15.17
2022-08-26T02:35:53.825Z,15.40
2022-08-26T02:37:55.776Z,15.24
2022-08-26T02:40:00.336Z,15.03
2022-08-26T02:42:02.338Z,14.99
2022-08-26T02:44:04.639Z,14.94
2022-08-26T02:46:06.764Z,15.06
2022-08-26T02:48:16.886Z,15.16
2022-08-26T02:50:20.987Z,15.09
2022-08-26T02:52:23.942Z,15.09
2022-08-26T02:54:27.030Z,15.37
2022-08-26T02:56:33.450Z,15.14
2022-08-26T02:58:37.480Z,15.20
2022-08-26T03:00:52.900Z,14.97
2022-08-26T03:02:55.644Z,14.86
2022-08-26T03:05:01.912Z,14.79
2022-08-26T03:07:04.967Z,14.75
2022-08-26T03:09:08.717Z,14.76
2022-08-26T03:11:11.826Z,14.74
2022-08-26T03:13:14.608Z,14.86
2022-08-26T03:15:18.544Z,14.86
2022-08-26T03:17:21.580Z,14.77
2022-08-26T03:19:25.935Z,14.79
2022-08-26T03:21:32.135Z,14.79
2022-08-26T03:23:38.198Z,14.69
2022-08-26T03:25:40.410Z,14.74
2022-08-26T03:27:43.667Z,14.73
2022-08-26T03:30:05.229Z,14.73
2022-08-26T03:32:07.214Z,14.76
2022-08-26T03:34:09.876Z,14.77
2022-08-26T03:36:13.232Z,14.69
2022-08-26T03:38:21.169Z,14.71
2022-08-26T03:40:23.397Z,14.84
2022-08-26T03:42:25.448Z,14.89
2022-08-26T03:44:29.068Z,14.47
2022-08-26T03:46:33.402Z,14.50
2022-08-26T03:48:36.973Z,14.68
2022-08-26T03:50:39.135Z,14.66
2022-08-26T03:52:44.039Z,14.72
2022-08-26T03:54:46.156Z,14.74
2022-08-26T03:56:49.197Z,14.74
2022-08-26T03:58:57.162Z,14.86
2022-08-26T04:01:01.089Z,14.85
2022-08-26T04:03:04.982Z,14.79
2022-08-26T04:05:07.509Z,14.91
2022-08-26T04:07:15.808Z,14.94
2022-08-26T04:09:21.280Z,15.12
2022-08-26T04:11:26.986Z,15.32
2022-08-26T04:13:29.849Z,15.49
2022-08-26T04:15:31.784Z,15.44
2022-08-26T04:17:36.080Z,15.59
2022-08-26T04:19:37.936Z,15.69
2022-08-26T04:21:41.513Z,15.60
2022-08-26T04:23:47.567Z,15.69
2022-08-26T04:25:51.509Z,15.93
2022-08-26T04:27:53.475Z,16.16
2022-08-26T04:29:55.534Z,16.31
2022-08-26T04:31:59.740Z,16.39
2022-08-26T04:34:01.737Z,16.46
2022-08-26T04:36:05.716Z,16.65
2022-08-26T04:38:07.660Z,16.59
2022-08-26T04:40:12.241Z,16.58
2022-08-26T04:42:15.840Z,16.67
2022-08-26T04:44:25.179Z,16.74
2022-08-26T04:46:27.028Z,16.97
2022-08-26T04:48:30.636Z,17.03
2022-08-26T04:50:32.874Z,16.97
2022-08-26T04:52:36.460Z,16.91
2022-08-26T04:54:38.854Z,16.91
2022-08-26T04:56:49.242Z,16.83
2022-08-26T04:58:51.179Z,16.90
2022-08-26T05:00:55.598Z,17.07
2022-08-26T05:02:57.517Z,17.06
2022-08-26T05:04:59.461Z,17.06
2022-08-26T05:07:02.737Z,17.42
2022-08-26T05:09:06.821Z,17.94
2022-08-26T05:11:09.869Z,18.28
2022-08-26T05:13:16.483Z,18.56
2022-08-26T05:15:18.713Z,18.92
2022-08-26T05:17:20.847Z,19.78
2022-08-26T05:19:23.925Z,19.81
2022-08-26T05:21:29.246Z,19.95
2022-08-26T05:23:34.128Z,20.25
2022-08-26T05:25:42.250Z,20.76
2022-08-26T05:27:44.775Z,20.78
2022-08-26T05:29:48.634Z,21.11
2022-08-26T05:31:56.456Z,20.61
2022-08-26T05:33:59.616Z,20.57
2022-08-26T05:36:17.327Z,20.56
2022-08-26T05:38:21.839Z,20.55
2022-08-26T05:40:23.825Z,20.97
2022-08-26T05:42:28.735Z,20.98
2022-08-26T05:44:53.526Z,21.04
2022-08-26T05:46:52.748Z,21.08
2022-08-26T05:48:59.092Z,20.76
2022-08-26T05:51:08.770Z,20.77
2022-08-26T05:53:13.005Z,20.79
2022-08-26T05:55:18.190Z,21.08
2022-08-26T05:57:20.435Z,21.46
2022-08-26T05:59:27.448Z,21.57
2022-08-26T06:01:29.937Z,21.77
2022-08-26T06:03:34.223Z,21.71
2022-08-26T06:05:40.481Z,21.59
2022-08-26T06:08:01.077Z,21.59
2022-08-26T06:10:30.426Z,22.16
2022-08-26T06:12:25.223Z,22.27
2022-08-26T06:14:27.258Z,22.46
2022-08-26T06:16:30.728Z,22.31
2022-08-26T06:18:37.216Z,23.20
2022-08-26T06:20:43.874Z,23.44
2022-08-26T06:23:17.227Z,23.89
2022-08-26T06:25:37.922Z,23.97
2022-08-26T06:27:51.220Z,23.94
2022-08-26T06:29:55.021Z,23.84
2022-08-26T06:31:58.540Z,23.43
2022-08-26T06:34:10.509Z,23.72
2022-08-26T06:36:32.420Z,23.81
2022-08-26T06:38:42.258Z,24.54
2022-08-26T06:40:51.373Z,24.73
2022-08-26T06:42:53.362Z,24.99
2022-08-26T06:44:57.650Z,24.87
2022-08-26T06:47:00.612Z,25.26
2022-08-26T06:49:04.109Z,25.62
2022-08-26T06:51:13.405Z,26.27
2022-08-26T06:53:17.348Z,25.99
2022-08-26T06:55:20.432Z,25.56
2022-08-26T06:57:33.039Z,26.40
2022-08-26T06:59:42.832Z,26.73
2022-08-26T07:01:45.323Z,26.71
2022-08-26T07:03:48.803Z,26.09
2022-08-26T07:05:51.033Z,26.17
2022-08-26T07:07:58.459Z,26.67
2022-08-26T07:10:00.336Z,26.33
2022-08-26T07:12:04.404Z,26.86
2022-08-26T07:14:07.900Z,27.49
2022-08-26T07:16:14.650Z,27.33
2022-08-26T07:18:17.505Z,27.04
2022-08-26T07:20:19.636Z,26.57
2022-08-26T07:22:22.637Z,27.00
2022-08-26T07:24:28.525Z,26.48
2022-08-26T07:26:31.835Z,26.59
2022-08-26T07:28:38.216Z,26.83
2022-08-26T07:30:42.277Z,27.16
2022-08-26T07:32:45.686Z,27.07
2022-08-26T07:34:49.638Z,27.77
2022-08-26T07:37:02.007Z,28.69
2022-08-26T07:39:09.883Z,28.16
2022-08-26T07:41:13.591Z,28.12
2022-08-26T07:43:15.962Z,27.93
2022-08-26T07:45:20.056Z,28.12
2022-08-26T07:47:26.076Z,27.98
2022-08-26T07:49:29.956Z,28.19
2022-08-26T07:51:32.220Z,28.52
2022-08-26T07:53:35.540Z,28.35
2022-08-26T07:55:37.748Z,28.48
2022-08-26T07:57:39.968Z,28.78
2022-08-26T07:59:42.954Z,28.77
2022-08-26T08:01:46.965Z,29.36
2022-08-26T08:03:54.018Z,29.95
2022-08-26T08:05:57.523Z,30.51
2022-08-26T08:08:21.846Z,29.55
2022-08-26T08:10:29.027Z,29.16
2022-08-26T08:12:31.150Z,29.75
2022-08-26T08:14:36.746Z,29.51
2022-08-26T08:16:41.563Z,29.07
2022-08-26T08:18:48.120Z,29.16
2022-08-26T08:20:59.005Z,29.38
2022-08-26T08:23:07.209Z,29.40
2022-08-26T08:25:10.658Z,29.49
2022-08-26T08:27:14.456Z,29.21
2022-08-26T08:29:16.400Z,28.72
2022-08-26T08:31:45.066Z,28.59
2022-08-26T08:33:48.122Z,28.55
2022-08-26T08:35:50.654Z,28.55
2022-08-26T08:37:55.673Z,28.54
2022-08-26T08:40:05.655Z,28.97
2022-08-26T08:42:36.114Z,28.86
2022-08-26T08:44:43.994Z,28.63
2022-08-26T08:46:51.037Z,28.76
2022-08-26T08:49:00.092Z,28.82
2022-08-26T08:51:04.814Z,28.71
2022-08-26T08:53:23.452Z,28.42
2022-08-26T08:55:35.658Z,28.62
2022-08-26T08:57:53.634Z,28.64
2022-08-26T09:00:04.878Z,28.97
2022-08-26T09:02:48.043Z,28.80
2022-08-26T09:05:03.236Z,28.79
2022-08-26T09:07:12.690Z,29.07
2022-08-26T09:09:41.292Z,28.51
2022-08-26T09:11:43.644Z,29.32
2022-08-26T09:13:53.171Z,29.86
2022-08-26T09:16:14.161Z,29.52
2022-08-26T09:18:25.358Z,29.99
2022-08-26T09:21:06.372Z,30.32
2022-08-26T09:23:12.920Z,29.26
2022-08-26T09:25:15.623Z,29.18
2022-08-26T09:27:44.905Z,28.86
2022-08-26T09:29:50.488Z,28.81
2022-08-26T09:32:25.200Z,28.46
2022-08-26T09:34:28.408Z,28.36
2022-08-26T09:36:41.228Z,28.58
2022-08-26T09:38:45.253Z,28.79
2022-08-26T09:41:05.364Z,28.83
2022-08-26T09:43:22.333Z,29.14
2022-08-26T09:45:29.355Z,29.26
2022-08-26T09:47:41.717Z,29.26
2022-08-26T09:49:44.879Z,29.28
2022-08-26T09:51:50.065Z,29.02
2022-08-26T09:54:03.437Z,28.96
2022-08-26T09:56:30.031Z,28.95
2022-08-26T09:58:41.942Z,29.59
2022-08-26T10:01:06.754Z,29.05
2022-08-26T10:03:24.811Z,29.35
2022-08-26T10:06:00.482Z,29.49
2022-08-26T10:08:27.654Z,29.00
2022-08-26T10:10:35.417Z,29.03
2022-08-26T10:12:44.864Z,29.20
2022-08-26T10:14:52.288Z,29.02
2022-08-26T10:17:23.997Z,29.03
2022-08-26T10:19:55.852Z,28.92
2022-08-26T10:22:05.545Z,28.67
2022-08-26T10:24:11.333Z,29.03
2022-08-26T10:26:49.797Z,28.71
2022-08-26T10:29:10.450Z,28.77
2022-08-26T10:31:45.179Z,28.66
2022-08-26T10:33:50.107Z,28.89
2022-08-26T10:35:56.900Z,28.87
2022-08-26T10:38:04.937Z,28.70
2022-08-26T10:40:23.533Z,28.80
2022-08-26T10:42:39.311Z,28.97
2022-08-26T10:44:45.383Z,28.81
2022-08-26T10:46:57.811Z,28.50
2022-08-26T10:49:06.719Z,28.71
2022-08-26T10:51:12.833Z,28.97
2022-08-26T10:53:36.837Z,28.93
2022-08-26T10:55:43.856Z,29.09
2022-08-26T10:57:58.974Z,29.19
2022-08-26T11:00:44.153Z,29.30
2022-08-26T11:02:51.765Z,28.99
2022-08-26T11:05:05.765Z,29.56
2022-08-26T11:07:40.653Z,29.48
2022-08-26T11:09:47.273Z,29.27
2022-08-26T11:11:53.020Z,29.40
2022-08-26T11:14:01.644Z,29.15
2022-08-26T11:16:04.089Z,29.20
2022-08-26T11:18:11.224Z,29.13
2022-08-26T11:20:46.029Z,29.16
2022-08-26T11:22:54.803Z,29.49
2022-08-26T11:24:56.768Z,29.41
2022-08-26T11:26:58.778Z,29.56
2022-08-26T11:29:03.168Z,29.70
2022-08-26T11:31:10.311Z,29.50
2022-08-26T11:33:52.574Z,29.48
2022-08-26T11:35:56.287Z,29.34
2022-08-26T11:38:18.810Z,29.31
2022-08-26T11:40:27.301Z,29.45
2022-08-26T11:42:36.018Z,29.35
2022-08-26T11:44:49.222Z,29.69
2022-08-26T11:46:59.887Z,29.53
2022-08-26T11:49:05.607Z,29.68
2022-08-26T11:51:21.361Z,29.73
2022-08-26T11:53:26.112Z,30.15
2022-08-26T11:55:30.707Z,29.81
2022-08-26T11:57:35.547Z,29.95
2022-08-26T11:59:41.336Z,29.81
2022-08-26T12:01:52.137Z,29.56
2022-08-26T12:03:54.677Z,29.54
2022-08-26T12:06:00.462Z,29.58
2022-08-26T12:08:09.060Z,30.13
2022-08-26T12:10:30.843Z,30.09
2022-08-26T12:12:36.154Z,30.27
2022-08-26T12:14:39.696Z,29.90
2022-08-26T12:16:42.099Z,30.45
2022-08-26T12:18:47.399Z,30.17
2022-08-26T12:20:54.210Z,30.38
2022-08-26T12:22:59.128Z,30.26
2022-08-26T12:25:05.558Z,30.11
2022-08-26T12:27:21.881Z,30.76
2022-08-26T12:29:28.571Z,30.57
2022-08-26T12:31:34.760Z,30.38
2022-08-26T12:33:38.935Z,30.30
2022-08-26T12:35:42.286Z,30.44
2022-08-26T12:37:50.643Z,30.33
2022-08-26T12:39:53.252Z,30.60
2022-08-26T12:41:58.385Z,30.63
2022-08-26T12:44:00.415Z,30.71
2022-08-26T12:46:06.625Z,30.47
2022-08-26T12:48:15.827Z,30.63
2022-08-26T12:50:23.192Z,30.38
2022-08-26T12:52:30.445Z,30.27
2022-08-26T12:54:56.565Z,30.19
2022-08-26T12:57:10.454Z,30.01
2022-08-26T12:59:23.351Z,29.92
2022-08-26T13:01:41.312Z,29.73
2022-08-26T13:03:46.491Z,29.80
2022-08-26T13:05:51.562Z,29.89
2022-08-26T13:08:24.841Z,30.12
2022-08-26T13:10:40.466Z,30.22
2022-08-26T13:12:43.464Z,30.13
2022-08-26T13:14:45.389Z,30.10
2022-08-26T13:16:47.665Z,30.44
2022-08-26T13:18:52.150Z,29.92
2022-08-26T13:20:54.177Z,30.50
2022-08-26T13:22:58.973Z,30.55
2022-08-26T13:25:12.968Z,30.25
2022-08-26T13:27:15.309Z,30.30
2022-08-26T13:29:18.307Z,30.07
2022-08-26T13:31:20.899Z,30.09
2022-08-26T13:33:29.031Z,30.10
2022-08-26T13:35:32.021Z,30.12
2022-08-26T13:37:34.995Z,29.87
2022-08-26T13:39:38.419Z,29.84
2022-08-26T13:41:40.471Z,29.78
2022-08-26T13:43:42.419Z,29.89
2022-08-26T13:45:45.376Z,29.78
2022-08-26T13:47:53.590Z,29.82
2022-08-26T13:49:56.626Z,29.93
2022-08-26T13:51:58.643Z,29.93
2022-08-26T13:54:00.984Z,29.93
2022-08-26T13:56:04.436Z,29.79
2022-08-26T13:58:08.494Z,29.92
2022-08-26T14:00:12.266Z,29.95
2022-08-26T14:02:15.603Z,30.01
2022-08-26T14:04:27.357Z,30.25
2022-08-26T14:06:30.265Z,30.38
2022-08-26T14:08:32.896Z,30.29
2022-08-26T14:10:37.171Z,30.49
2022-08-26T14:12:45.933Z,30.33
2022-08-26T14:14:48.419Z,30.13
2022-08-26T14:16:59.125Z,29.90
2022-08-26T14:19:04.139Z,30.01
2022-08-26T14:21:09.092Z,30.00
2022-08-26T14:23:19.643Z,30.01
2022-08-26T14:25:23.070Z,30.03
2022-08-26T14:27:25.721Z,29.92
2022-08-26T14:29:27.888Z,29.92
2022-08-26T14:31:33.244Z,29.83
2022-08-26T14:33:38.342Z,29.86
2022-08-26T14:35:41.275Z,29.83
2022-08-26T14:37:51.832Z,29.87
2022-08-26T14:39:54.081Z,29.78
2022-08-26T14:41:57.187Z,29.77
2022-08-26T14:44:03.479Z,29.78
2022-08-26T14:46:05.748Z,29.76
2022-08-26T14:48:08.994Z,29.69
2022-08-26T14:50:14.644Z,29.69
2022-08-26T14:52:17.536Z,29.62
2022-08-26T14:54:21.813Z,29.58
2022-08-26T14:56:24.434Z,29.56
2022-08-26T14:58:26.434Z,29.45
2022-08-26T15:00:36.565Z,29.51
2022-08-26T15:02:39.703Z,29.31
2022-08-26T15:04:42.804Z,29.27
2022-08-26T15:06:53.463Z,29.25
2022-08-26T15:08:55.626Z,29.21
2022-08-26T15:11:01.583Z,29.25
2022-08-26T15:13:03.579Z,29.24
2022-08-26T15:15:15.436Z,29.13
2022-08-26T15:17:17.836Z,29.18
2022-08-26T15:19:20.593Z,29.15
2022-08-26T15:21:24.463Z,29.16
2022-08-26T15:23:27.426Z,29.15
2022-08-26T15:25:29.978Z,29.07
2022-08-26T15:27:32.764Z,29.04
2022-08-26T15:29:39.322Z,29.08
2022-08-26T15:31:41.327Z,29.08
2022-08-26T15:33:44.479Z,29.09
2022-08-26T15:35:46.505Z,29.08
2022-08-26T15:39:57.161Z,29.11
2022-08-26T15:42:01.306Z,29.14
2022-08-26T15:44:06.019Z,29.03
2022-08-26T15:46:12.005Z,29.11
2022-08-26T15:48:16.155Z,29.15
2022-08-26T15:50:18.399Z,29.08
2022-08-26T15:52:21.565Z,29.07
2022-08-26T15:54:24.145Z,29.05
2022-08-26T15:56:27.832Z,28.97
2022-08-26T15:58:30.461Z,29.00
2022-08-26T16:00:33.002Z,29.01
2022-08-26T16:02:35.055Z,28.93
2022-08-26T16:04:39.348Z,28.94
2022-08-26T16:06:42.739Z,28.89
2022-08-26T16:08:47.912Z,28.86
2022-08-26T16:10:50.854Z,28.85
2022-08-26T16:12:54.203Z,28.80
2022-08-26T16:14:57.596Z,28.89
2022-08-26T16:16:59.628Z,28.83
2022-08-26T16:19:06.845Z,28.82
2022-08-26T16:21:14.667Z,28.69
2022-08-26T16:23:17.904Z,28.68
2022-08-26T16:25:21.166Z,28.51
2022-08-26T16:27:25.300Z,28.53
2022-08-26T16:29:27.636Z,28.50
2022-08-26T16:31:29.732Z,28.47
2022-08-26T16:33:33.886Z,28.45
2022-08-26T16:35:35.988Z,28.41
2022-08-26T16:37:39.460Z,28.43
2022-08-26T16:39:45.048Z,28.24
2022-08-26T16:41:47.312Z,28.22
2022-08-26T16:43:49.789Z,28.27
2022-08-26T16:45:52.921Z,28.13
2022-08-26T16:47:55.461Z,28.06
2022-08-26T16:49:57.523Z,27.99
2022-08-26T16:52:02.700Z,27.89
2022-08-26T16:54:10.010Z,27.87
2022-08-26T16:56:20.221Z,27.81
2022-08-26T16:58:22.471Z,27.69
2022-08-26T17:00:30.509Z,27.66
2022-08-26T17:02:34.498Z,27.59
2022-08-26T17:04:46.213Z,27.58
2022-08-26T17:06:49.284Z,27.45
2022-08-26T17:08:51.269Z,27.35
2022-08-26T17:10:54.851Z,27.31
2022-08-26T17:12:57.357Z,27.28
2022-08-26T17:14:59.512Z,27.17
2022-08-26T17:17:06.645Z,27.15
2022-08-26T17:19:08.743Z,27.10
2022-08-26T17:21:13.412Z,26.99
2022-08-26T17:23:18.506Z,26.92
2022-08-26T17:25:29.792Z,26.82
2022-08-26T17:27:31.861Z,26.89
2022-08-26T17:29:34.364Z,26.83
2022-08-26T17:31:36.320Z,26.76
2022-08-26T17:33:39.528Z,26.74
2022-08-26T17:35:41.586Z,26.67
2022-08-26T17:37:47.027Z,26.60
2022-08-26T17:39:50.047Z,26.48
2022-08-26T17:41:52.161Z,26.47
2022-08-26T17:43:57.665Z,26.31
2022-08-26T17:46:10.497Z,26.22
2022-08-26T17:48:15.808Z,26.27
2022-08-26T17:50:18.556Z,26.09
2022-08-26T17:52:21.769Z,25.96
2022-08-26T17:54:26.317Z,26.10
2022-08-26T17:56:33.567Z,25.90
2022-08-26T17:58:56.836Z,25.88
2022-08-26T18:00:59.004Z,25.84
2022-08-26T18:03:24.584Z,25.80
2022-08-26T18:05:29.130Z,25.71
2022-08-26T18:07:37.732Z,25.69
2022-08-26T18:09:46.312Z,25.58
2022-08-26T18:11:48.294Z,25.51
2022-08-26T18:13:55.919Z,25.42
2022-08-26T18:15:57.986Z,25.37
2022-08-26T18:18:02.754Z,25.05
2022-08-26T18:20:06.173Z,24.71
2022-08-26T18:22:15.703Z,24.43
2022-08-26T18:24:18.686Z,24.14
2022-08-26T18:26:25.984Z,24.05
2022-08-26T18:28:30.627Z,23.89
2022-08-26T18:30:35.672Z,23.74
2022-08-26T18:32:42.364Z,23.58
2022-08-26T18:34:44.390Z,23.73
2022-08-26T18:36:52.868Z,23.26
2022-08-26T18:38:55.783Z,23.10
2022-08-26T18:41:10.218Z,22.81
2022-08-26T18:43:36.504Z,22.31
2022-08-26T18:45:41.262Z,22.20
2022-08-26T18:47:44.089Z,22.04
2022-08-26T18:49:47.603Z,22.35
2022-08-26T18:51:53.163Z,22.21
2022-08-26T18:53:56.211Z,23.30
2022-08-26T18:56:01.255Z,23.31
2022-08-26T18:58:05.630Z,23.51
2022-08-26T19:00:14.321Z,23.45
2022-08-26T19:02:16.636Z,23.44
2022-08-26T19:04:18.936Z,23.28
2022-08-26T19:06:28.477Z,22.92
2022-08-26T19:08:39.066Z,22.86
2022-08-26T19:10:52.883Z,22.04
2022-08-26T19:13:02.640Z,22.03
2022-08-26T19:15:06.266Z,22.01
2022-08-26T19:17:14.643Z,22.04
2022-08-26T19:19:18.631Z,21.97
2022-08-26T19:21:25.860Z,21.74
2022-08-26T19:23:31.969Z,21.27
2022-08-26T19:25:34.553Z,20.94
2022-08-26T19:27:37.866Z,20.90
2022-08-26T19:29:40.177Z,20.74
2022-08-26T19:31:44.031Z,20.78
2022-08-26T19:33:48.826Z,20.98
2022-08-26T19:35:53.430Z,21.05
2022-08-26T19:37:55.575Z,20.64
2022-08-26T19:39:58.876Z,20.56
2022-08-26T19:42:02.361Z,20.46
2022-08-26T19:44:07.834Z,20.18
2022-08-26T19:46:20.456Z,20.46
2022-08-26T19:48:29.379Z,20.17
2022-08-26T19:50:34.241Z,20.33
2022-08-26T19:52:37.012Z,20.17
2022-08-26T19:54:40.154Z,20.22
2022-08-26T19:56:44.181Z,20.14
2022-08-26T19:58:56.118Z,20.14
2022-08-26T20:01:00.240Z,19.99
2022-08-26T20:03:05.695Z,19.94
2022-08-26T20:05:11.824Z,19.99
2022-08-26T20:07:18.902Z,19.90
2022-08-26T20:09:26.249Z,19.99
2022-08-26T20:11:28.441Z,19.97
2022-08-26T20:13:30.920Z,20.07
2022-08-26T20:15:33.251Z,19.55
2022-08-26T20:17:35.516Z,19.60
2022-08-26T20:19:56.386Z,19.73
2022-08-26T20:21:58.647Z,19.96
2022-08-26T20:24:07.824Z,19.79
2022-08-26T20:26:10.266Z,19.41
2022-08-26T20:28:15.397Z,20.07
2022-08-26T20:30:25.579Z,20.08
2022-08-26T20:32:31.556Z,20.76
2022-08-26T20:34:36.927Z,20.80
2022-08-26T20:36:41.698Z,20.87
2022-08-26T20:38:45.484Z,20.57
2022-08-26T20:40:51.592Z,19.74
2022-08-26T20:43:01.345Z,20.03
2022-08-26T20:45:04.525Z,19.45
2022-08-26T20:47:07.489Z,19.69
2022-08-26T20:49:09.958Z,19.31
2022-08-26T20:51:12.562Z,19.27
2022-08-26T20:53:16.545Z,19.35
2022-08-26T20:55:19.442Z,19.16
2022-08-26T20:57:22.670Z,19.30
2022-08-26T20:59:25.513Z,19.08
2022-08-26T21:01:34.757Z,19.07
2022-08-26T21:03:37.222Z,18.89
2022-08-26T21:05:39.325Z,18.93
2022-08-26T21:07:47.233Z,19.01
2022-08-26T21:09:51.602Z,18.99
2022-08-26T21:11:57.908Z,18.77
2022-08-26T21:14:06.929Z,18.74
2022-08-26T21:16:18.192Z,18.88
2022-08-26T21:18:20.296Z,18.90
2022-08-26T21:20:22.290Z,19.03
2022-08-26T21:22:25.276Z,18.91
2022-08-26T21:24:28.999Z,18.73
2022-08-26T21:26:32.055Z,18.95
2022-08-26T21:28:39.547Z,19.09
2022-08-26T21:30:41.744Z,18.87
2022-08-26T21:32:46.891Z,18.91
2022-08-26T21:34:48.887Z,18.80
2022-08-26T21:36:51.946Z,18.70
2022-08-26T21:38:59.132Z,18.69
2022-08-26T21:41:07.256Z,18.78
2022-08-26T21:43:22.706Z,18.72
2022-08-26T21:45:43.186Z,18.81
2022-08-26T21:47:48.034Z,18.94
2022-08-26T21:49:50.632Z,18.89
2022-08-26T21:51:53.737Z,18.79
2022-08-26T21:53:58.191Z,19.04
2022-08-26T21:56:05.738Z,18.92
2022-08-26T21:58:08.082Z,18.91
2022-08-26T22:00:13.394Z,19.08
2022-08-26T22:02:15.952Z,19.10
2022-08-26T22:04:18.405Z,19.13
2022-08-26T22:06:23.233Z,19.70
2022-08-26T22:08:28.040Z,19.50
2022-08-26T22:10:30.169Z,19.49
2022-08-26T22:12:33.154Z,19.27
2022-08-26T22:14:35.199Z,18.87
2022-08-26T22:16:37.589Z,18.64
2022-08-26T22:18:45.882Z,18.67
2022-08-26T22:20:48.850Z,18.75
2022-08-26T22:22:50.775Z,18.80
2022-08-26T22:24:53.797Z,18.57
2022-08-26T22:26:57.190Z,18.63
2022-08-26T22:29:00.550Z,18.47
2022-08-26T22:31:02.915Z,18.48
2022-08-26T22:33:11.230Z,18.71
2022-08-26T22:35:28.310Z,18.66
2022-08-26T22:37:31.467Z,18.46
2022-08-26T22:39:33.921Z,18.66
2022-08-26T22:41:35.968Z,18.76
2022-08-26T22:43:38.890Z,18.56
2022-08-26T22:45:44.358Z,18.52
2022-08-26T22:47:46.458Z,18.37
2022-08-26T22:49:48.442Z,18.11
2022-08-26T22:51:51.373Z,18.20
2022-08-26T22:53:55.368Z,18.10
2022-08-26T22:55:58.156Z,18.19
2022-08-26T22:58:00.534Z,18.28
2022-08-26T23:00:02.664Z,18.34
2022-08-26T23:02:04.772Z,18.34
2022-08-26T23:04:11.653Z,18.36
2022-08-26T23:06:13.826Z,18.42
2022-08-26T23:08:16.937Z,18.24
2022-08-26T23:10:18.953Z,18.20
2022-08-26T23:12:20.834Z,18.58
2022-08-26T23:14:25.485Z,19.25
2022-08-26T23:16:28.411Z,19.13
2022-08-26T23:18:38.708Z,18.79
2022-08-26T23:20:41.189Z,18.87
2022-08-26T23:22:43.146Z,18.77
2022-08-26T23:24:45.163Z,19.42
2022-08-26T23:26:47.275Z,19.10
2022-08-26T23:28:49.302Z,19.38
2022-08-26T23:30:51.313Z,19.53
2022-08-26T23:32:53.885Z,19.40
2022-08-26T23:35:01.670Z,19.35
2022-08-26T23:37:06.753Z,19.54
2022-08-26T23:39:09.087Z,19.70
2022-08-26T23:41:11.127Z,19.78
2022-08-26T23:43:16.615Z,19.95
2022-08-26T23:45:20.105Z,19.83
2022-08-26T23:47:22.073Z,19.94
2022-08-26T23:49:24.793Z,19.95
2022-08-26T23:51:45.111Z,19.95
2022-08-26T23:53:48.094Z,19.92
2022-08-26T23:55:52.630Z,19.95
2022-08-26T23:57:55.544Z,19.95
2022-08-26T23:59:58.131Z,20.06
